sensor_id;sensor_type;location;lat;lon;timestamp;P1;durP1;ratioP1;P2;durP2;ratioP2
30173;SDS011;16985;50.814;8.530;2023-08-01T00:00:01;2.25;;;1.40;;
30173;SDS011;16985;50.814;8.530;2023-08-01T00:02:36;3.80;;;1.50;;
30173;SDS011;16985;50.814;8.530;2023-08-01T00:05:03;2.67;;;1.58;;
30173;SDS011;16985;50.814;8.530;2023-08-01T00:07:29;2.70;;;1.75;;
30173;SDS011;16985;50.814;8.530;2023-08-01T00:09:55;2.63;;;1.48;;
30173;SDS011;16985;50.814;8.530;2023-08-01T00:12:24;2.15;;;1.42;;
30173;SDS011;16985;50.814;8.530;2023-08-01T00:14:50;2.05;;;1.30;;
30173;SDS011;16985;50.814;8.530;2023-08-01T00:17:16;1.25;;;1.13;;
30173;SDS011;16985;50.814;8.530;2023-08-01T00:19:42;3.03;;;1.40;;
30173;SDS011;16985;50.814;8.530;2023-08-01T00:22:08;1.35;;;1.25;;
30173;SDS011;16985;50.814;8.530;2023-08-01T00:24:35;1.25;;;1.10;;
30173;SDS011;16985;50.814;8.530;2023-08-01T00:27:01;1.35;;;1.00;;
30173;SDS011;16985;50.814;8.530;2023-08-01T00:29:27;0.90;;;0.85;;
30173;SDS011;16985;50.814;8.530;2023-08-01T00:31:53;1.30;;;0.90;;
30173;SDS011;16985;50.814;8.530;2023-08-01T00:34:18;3.42;;;1.13;;
30173;SDS011;16985;50.814;8.530;2023-08-01T00:36:44;0.95;;;0.90;;
30173;SDS011;16985;50.814;8.530;2023-08-01T00:39:10;2.85;;;0.90;;
30173;SDS011;16985;50.814;8.530;2023-08-01T00:41:36;1.20;;;1.00;;
30173;SDS011;16985;50.814;8.530;2023-08-01T00:44:02;1.67;;;1.17;;
30173;SDS011;16985;50.814;8.530;2023-08-01T00:46:28;2.42;;;1.15;;
30173;SDS011;16985;50.814;8.530;2023-08-01T00:48:54;1.40;;;1.25;;
30173;SDS011;16985;50.814;8.530;2023-08-01T00:51:23;1.63;;;1.00;;
30173;SDS011;16985;50.814;8.530;2023-08-01T00:53:49;1.20;;;1.10;;
30173;SDS011;16985;50.814;8.530;2023-08-01T00:56:16;1.73;;;1.00;;
30173;SDS011;16985;50.814;8.530;2023-08-01T00:58:44;0.90;;;0.80;;
30173;SDS011;16985;50.814;8.530;2023-08-01T01:01:10;1.52;;;0.85;;
30173;SDS011;16985;50.814;8.530;2023-08-01T01:03:36;2.35;;;1.13;;
30173;SDS011;16985;50.814;8.530;2023-08-01T01:08:42;1.50;;;1.00;;
30173;SDS011;16985;50.814;8.530;2023-08-01T01:11:07;0.98;;;0.90;;
30173;SDS011;16985;50.814;8.530;2023-08-01T01:13:33;1.30;;;1.00;;
30173;SDS011;16985;50.814;8.530;2023-08-01T01:16:00;1.95;;;0.88;;
30173;SDS011;16985;50.814;8.530;2023-08-01T01:18:25;0.70;;;0.65;;
30173;SDS011;16985;50.814;8.530;2023-08-01T01:20:51;6.03;;;0.60;;
30173;SDS011;16985;50.814;8.530;2023-08-01T01:23:17;1.45;;;0.80;;
30173;SDS011;16985;50.814;8.530;2023-08-01T01:25:48;2.33;;;0.68;;
30173;SDS011;16985;50.814;8.530;2023-08-01T01:28:16;1.30;;;0.60;;
30173;SDS011;16985;50.814;8.530;2023-08-01T01:30:43;1.17;;;0.60;;
30173;SDS011;16985;50.814;8.530;2023-08-01T01:33:11;2.58;;;0.60;;
30173;SDS011;16985;50.814;8.530;2023-08-01T01:35:37;0.55;;;0.47;;
30173;SDS011;16985;50.814;8.530;2023-08-01T01:38:03;0.85;;;0.80;;
30173;SDS011;16985;50.814;8.530;2023-08-01T01:40:30;1.67;;;0.60;;
30173;SDS011;16985;50.814;8.530;2023-08-01T01:42:57;0.50;;;0.50;;
30173;SDS011;16985;50.814;8.530;2023-08-01T01:45:23;0.95;;;0.60;;
30173;SDS011;16985;50.814;8.530;2023-08-01T01:47:49;2.40;;;0.60;;
30173;SDS011;16985;50.814;8.530;2023-08-01T01:50:15;0.85;;;0.68;;
30173;SDS011;16985;50.814;8.530;2023-08-01T01:52:41;1.70;;;0.40;;
30173;SDS011;16985;50.814;8.530;2023-08-01T01:55:07;0.40;;;0.30;;
30173;SDS011;16985;50.814;8.530;2023-08-01T01:57:34;1.48;;;0.68;;
30173;SDS011;16985;50.814;8.530;2023-08-01T02:00:01;0.60;;;0.60;;
30173;SDS011;16985;50.814;8.530;2023-08-01T02:02:38;0.40;;;0.40;;
30173;SDS011;16985;50.814;8.530;2023-08-01T02:05:03;3.45;;;0.60;;
30173;SDS011;16985;50.814;8.530;2023-08-01T02:07:30;0.70;;;0.60;;
30173;SDS011;16985;50.814;8.530;2023-08-01T02:09:56;0.60;;;0.60;;
30173;SDS011;16985;50.814;8.530;2023-08-01T02:12:22;0.50;;;0.50;;
30173;SDS011;16985;50.814;8.530;2023-08-01T02:14:47;0.60;;;0.60;;
30173;SDS011;16985;50.814;8.530;2023-08-01T02:17:13;0.70;;;0.50;;
30173;SDS011;16985;50.814;8.530;2023-08-01T02:19:39;2.67;;;0.70;;
30173;SDS011;16985;50.814;8.530;2023-08-01T02:22:06;0.50;;;0.50;;
30173;SDS011;16985;50.814;8.530;2023-08-01T02:24:32;1.05;;;0.60;;
30173;SDS011;16985;50.814;8.530;2023-08-01T02:26:57;0.50;;;0.50;;
30173;SDS011;16985;50.814;8.530;2023-08-01T02:29:23;1.60;;;0.50;;
30173;SDS011;16985;50.814;8.530;2023-08-01T02:31:49;0.43;;;0.43;;
30173;SDS011;16985;50.814;8.530;2023-08-01T02:34:15;0.60;;;0.60;;
30173;SDS011;16985;50.814;8.530;2023-08-01T02:36:41;0.70;;;0.70;;
30173;SDS011;16985;50.814;8.530;2023-08-01T02:39:07;1.25;;;0.60;;
30173;SDS011;16985;50.814;8.530;2023-08-01T02:41:32;0.60;;;0.52;;
30173;SDS011;16985;50.814;8.530;2023-08-01T02:43:59;0.82;;;0.75;;
30173;SDS011;16985;50.814;8.530;2023-08-01T02:46:27;6.03;;;0.80;;
30173;SDS011;16985;50.814;8.530;2023-08-01T02:48:54;0.63;;;0.63;;
30173;SDS011;16985;50.814;8.530;2023-08-01T02:51:20;0.60;;;0.60;;
30173;SDS011;16985;50.814;8.530;2023-08-01T02:53:46;0.98;;;0.60;;
30173;SDS011;16985;50.814;8.530;2023-08-01T02:56:12;1.00;;;0.70;;
30173;SDS011;16985;50.814;8.530;2023-08-01T02:58:38;0.80;;;0.80;;
30173;SDS011;16985;50.814;8.530;2023-08-01T03:01:07;2.60;;;0.73;;
30173;SDS011;16985;50.814;8.530;2023-08-01T03:03:34;0.93;;;0.60;;
30173;SDS011;16985;50.814;8.530;2023-08-01T03:06:01;0.80;;;0.80;;
30173;SDS011;16985;50.814;8.530;2023-08-01T03:08:27;1.75;;;0.68;;
30173;SDS011;16985;50.814;8.530;2023-08-01T03:10:54;0.77;;;0.70;;
30173;SDS011;16985;50.814;8.530;2023-08-01T03:13:21;0.90;;;0.60;;
30173;SDS011;16985;50.814;8.530;2023-08-01T03:15:47;0.95;;;0.65;;
30173;SDS011;16985;50.814;8.530;2023-08-01T03:18:12;0.40;;;0.40;;
30173;SDS011;16985;50.814;8.530;2023-08-01T03:20:38;0.57;;;0.52;;
30173;SDS011;16985;50.814;8.530;2023-08-01T03:23:04;3.47;;;0.50;;
30173;SDS011;16985;50.814;8.530;2023-08-01T03:25:30;0.90;;;0.60;;
30173;SDS011;16985;50.814;8.530;2023-08-01T03:27:56;0.43;;;0.43;;
30173;SDS011;16985;50.814;8.530;2023-08-01T03:30:22;1.30;;;0.57;;
30173;SDS011;16985;50.814;8.530;2023-08-01T03:32:49;1.08;;;0.73;;
30173;SDS011;16985;50.814;8.530;2023-08-01T03:35:15;0.47;;;0.40;;
30173;SDS011;16985;50.814;8.530;2023-08-01T03:37:40;0.50;;;0.50;;
30173;SDS011;16985;50.814;8.530;2023-08-01T03:40:06;1.08;;;0.50;;
30173;SDS011;16985;50.814;8.530;2023-08-01T03:42:36;3.28;;;0.60;;
30173;SDS011;16985;50.814;8.530;2023-08-01T03:45:02;1.80;;;0.55;;
30173;SDS011;16985;50.814;8.530;2023-08-01T03:47:29;3.10;;;0.40;;
30173;SDS011;16985;50.814;8.530;2023-08-01T03:49:55;0.50;;;0.50;;
30173;SDS011;16985;50.814;8.530;2023-08-01T03:52:21;0.50;;;0.50;;
30173;SDS011;16985;50.814;8.530;2023-08-01T03:54:47;0.40;;;0.40;;
30173;SDS011;16985;50.814;8.530;2023-08-01T03:57:14;2.38;;;0.45;;
30173;SDS011;16985;50.814;8.530;2023-08-01T03:59:40;0.30;;;0.30;;
30173;SDS011;16985;50.814;8.530;2023-08-01T04:02:05;2.30;;;0.40;;
30173;SDS011;16985;50.814;8.530;2023-08-01T04:04:31;0.40;;;0.40;;
30173;SDS011;16985;50.814;8.530;2023-08-01T04:06:57;0.40;;;0.40;;
30173;SDS011;16985;50.814;8.530;2023-08-01T04:09:23;0.35;;;0.35;;
30173;SDS011;16985;50.814;8.530;2023-08-01T04:11:49;0.38;;;0.38;;
30173;SDS011;16985;50.814;8.530;2023-08-01T04:14:14;0.60;;;0.50;;
30173;SDS011;16985;50.814;8.530;2023-08-01T04:16:40;5.57;;;0.40;;
30173;SDS011;16985;50.814;8.530;2023-08-01T04:19:06;0.45;;;0.45;;
30173;SDS011;16985;50.814;8.530;2023-08-01T04:21:32;0.40;;;0.40;;
30173;SDS011;16985;50.814;8.530;2023-08-01T04:23:57;0.47;;;0.47;;
30173;SDS011;16985;50.814;8.530;2023-08-01T04:26:23;0.43;;;0.43;;
30173;SDS011;16985;50.814;8.530;2023-08-01T04:28:49;0.98;;;0.57;;
30173;SDS011;16985;50.814;8.530;2023-08-01T04:31:15;1.63;;;1.20;;
30173;SDS011;16985;50.814;8.530;2023-08-01T04:33:41;0.57;;;0.45;;
30173;SDS011;16985;50.814;8.530;2023-08-01T04:36:06;1.42;;;0.80;;
30173;SDS011;16985;50.814;8.530;2023-08-01T04:38:32;2.15;;;0.52;;
30173;SDS011;16985;50.814;8.530;2023-08-01T04:40:58;1.70;;;0.70;;
30173;SDS011;16985;50.814;8.530;2023-08-01T04:43:24;0.40;;;0.40;;
30173;SDS011;16985;50.814;8.530;2023-08-01T04:45:49;1.40;;;0.50;;
30173;SDS011;16985;50.814;8.530;2023-08-01T04:48:15;1.20;;;0.40;;
30173;SDS011;16985;50.814;8.530;2023-08-01T04:50:41;1.17;;;0.50;;
30173;SDS011;16985;50.814;8.530;2023-08-01T04:53:07;0.50;;;0.50;;
30173;SDS011;16985;50.814;8.530;2023-08-01T04:55:32;0.40;;;0.40;;
30173;SDS011;16985;50.814;8.530;2023-08-01T04:57:58;3.10;;;0.50;;
30173;SDS011;16985;50.814;8.530;2023-08-01T05:00:24;0.50;;;0.50;;
30173;SDS011;16985;50.814;8.530;2023-08-01T05:02:50;0.60;;;0.60;;
30173;SDS011;16985;50.814;8.530;2023-08-01T05:05:16;0.70;;;0.55;;
30173;SDS011;16985;50.814;8.530;2023-08-01T05:07:42;0.95;;;0.50;;
30173;SDS011;16985;50.814;8.530;2023-08-01T05:10:07;2.67;;;0.50;;
30173;SDS011;16985;50.814;8.530;2023-08-01T05:12:34;0.50;;;0.50;;
30173;SDS011;16985;50.814;8.530;2023-08-01T05:15:00;1.58;;;0.70;;
30173;SDS011;16985;50.814;8.530;2023-08-01T05:17:26;3.17;;;0.90;;
30173;SDS011;16985;50.814;8.530;2023-08-01T05:19:51;1.52;;;1.02;;
30173;SDS011;16985;50.814;8.530;2023-08-01T05:22:17;2.25;;;1.40;;
30173;SDS011;16985;50.814;8.530;2023-08-01T05:24:43;1.27;;;1.17;;
30173;SDS011;16985;50.814;8.530;2023-08-01T05:27:09;2.22;;;1.50;;
30173;SDS011;16985;50.814;8.530;2023-08-01T05:29:35;2.20;;;1.83;;
30173;SDS011;16985;50.814;8.530;2023-08-01T05:32:01;1.95;;;1.65;;
30173;SDS011;16985;50.814;8.530;2023-08-01T05:34:27;4.85;;;1.60;;
30173;SDS011;16985;50.814;8.530;2023-08-01T05:36:53;3.42;;;1.55;;
30173;SDS011;16985;50.814;8.530;2023-08-01T05:39:19;2.95;;;1.88;;
30173;SDS011;16985;50.814;8.530;2023-08-01T05:41:45;3.67;;;1.83;;
30173;SDS011;16985;50.814;8.530;2023-08-01T05:44:10;4.63;;;2.30;;
30173;SDS011;16985;50.814;8.530;2023-08-01T05:46:36;2.15;;;1.80;;
30173;SDS011;16985;50.814;8.530;2023-08-01T05:49:02;2.92;;;2.25;;
30173;SDS011;16985;50.814;8.530;2023-08-01T05:51:28;4.93;;;2.25;;
30173;SDS011;16985;50.814;8.530;2023-08-01T05:53:54;3.42;;;2.17;;
30173;SDS011;16985;50.814;8.530;2023-08-01T05:56:19;2.75;;;2.45;;
30173;SDS011;16985;50.814;8.530;2023-08-01T05:58:45;2.42;;;2.22;;
30173;SDS011;16985;50.814;8.530;2023-08-01T06:01:11;2.63;;;2.42;;
30173;SDS011;16985;50.814;8.530;2023-08-01T06:03:37;3.47;;;3.10;;
30173;SDS011;16985;50.814;8.530;2023-08-01T06:06:03;5.95;;;3.38;;
30173;SDS011;16985;50.814;8.530;2023-08-01T06:08:29;6.28;;;3.67;;
30173;SDS011;16985;50.814;8.530;2023-08-01T06:10:55;4.65;;;3.92;;
30173;SDS011;16985;50.814;8.530;2023-08-01T06:13:21;5.85;;;4.80;;
30173;SDS011;16985;50.814;8.530;2023-08-01T06:15:47;6.18;;;5.05;;
30173;SDS011;16985;50.814;8.530;2023-08-01T06:18:13;5.68;;;5.07;;
30173;SDS011;16985;50.814;8.530;2023-08-01T06:20:39;7.07;;;6.13;;
30173;SDS011;16985;50.814;8.530;2023-08-01T06:23:05;6.47;;;5.53;;
30173;SDS011;16985;50.814;8.530;2023-08-01T06:25:31;6.95;;;6.25;;
30173;SDS011;16985;50.814;8.530;2023-08-01T06:27:56;7.45;;;6.03;;
30173;SDS011;16985;50.814;8.530;2023-08-01T06:30:22;6.38;;;5.35;;
30173;SDS011;16985;50.814;8.530;2023-08-01T06:32:48;8.55;;;5.95;;
30173;SDS011;16985;50.814;8.530;2023-08-01T06:35:14;6.97;;;4.50;;
30173;SDS011;16985;50.814;8.530;2023-08-01T06:37:39;6.70;;;5.32;;
30173;SDS011;16985;50.814;8.530;2023-08-01T06:40:06;6.03;;;4.93;;
30173;SDS011;16985;50.814;8.530;2023-08-01T06:42:33;6.55;;;4.35;;
30173;SDS011;16985;50.814;8.530;2023-08-01T06:44:59;6.03;;;4.40;;
30173;SDS011;16985;50.814;8.530;2023-08-01T06:47:25;10.13;;;5.57;;
30173;SDS011;16985;50.814;8.530;2023-08-01T06:49:50;6.35;;;4.80;;
30173;SDS011;16985;50.814;8.530;2023-08-01T06:52:16;5.70;;;4.50;;
30173;SDS011;16985;50.814;8.530;2023-08-01T06:54:42;5.78;;;4.32;;
30173;SDS011;16985;50.814;8.530;2023-08-01T06:57:08;5.53;;;4.63;;
30173;SDS011;16985;50.814;8.530;2023-08-01T06:59:34;7.15;;;4.93;;
30173;SDS011;16985;50.814;8.530;2023-08-01T07:02:00;7.50;;;4.95;;
30173;SDS011;16985;50.814;8.530;2023-08-01T07:04:26;6.15;;;4.65;;
30173;SDS011;16985;50.814;8.530;2023-08-01T07:06:52;6.28;;;4.60;;
30173;SDS011;16985;50.814;8.530;2023-08-01T07:09:17;9.63;;;5.15;;
30173;SDS011;16985;50.814;8.530;2023-08-01T07:11:43;8.40;;;5.07;;
30173;SDS011;16985;50.814;8.530;2023-08-01T07:14:09;11.98;;;5.20;;
30173;SDS011;16985;50.814;8.530;2023-08-01T07:16:35;9.35;;;4.85;;
30173;SDS011;16985;50.814;8.530;2023-08-01T07:19:01;5.88;;;4.32;;
30173;SDS011;16985;50.814;8.530;2023-08-01T07:21:27;10.50;;;5.53;;
30173;SDS011;16985;50.814;8.530;2023-08-01T07:23:54;9.18;;;5.57;;
30173;SDS011;16985;50.814;8.530;2023-08-01T07:26:20;8.55;;;5.60;;
30173;SDS011;16985;50.814;8.530;2023-08-01T07:28:45;9.15;;;4.80;;
30173;SDS011;16985;50.814;8.530;2023-08-01T07:31:11;9.10;;;6.13;;
30173;SDS011;16985;50.814;8.530;2023-08-01T07:33:37;7.35;;;5.47;;
30173;SDS011;16985;50.814;8.530;2023-08-01T07:36:03;9.55;;;5.03;;
30173;SDS011;16985;50.814;8.530;2023-08-01T07:38:29;9.23;;;5.50;;
30173;SDS011;16985;50.814;8.530;2023-08-01T07:41:01;7.28;;;5.40;;
30173;SDS011;16985;50.814;8.530;2023-08-01T07:43:32;7.68;;;5.03;;
30173;SDS011;16985;50.814;8.530;2023-08-01T07:45:58;7.05;;;4.75;;
30173;SDS011;16985;50.814;8.530;2023-08-01T07:48:24;6.60;;;4.72;;
30173;SDS011;16985;50.814;8.530;2023-08-01T07:50:51;9.60;;;4.90;;
30173;SDS011;16985;50.814;8.530;2023-08-01T07:53:16;7.85;;;4.80;;
30173;SDS011;16985;50.814;8.530;2023-08-01T07:55:42;11.43;;;5.32;;
30173;SDS011;16985;50.814;8.530;2023-08-01T07:58:08;8.73;;;5.68;;
30173;SDS011;16985;50.814;8.530;2023-08-01T08:00:34;8.45;;;5.78;;
30173;SDS011;16985;50.814;8.530;2023-08-01T08:03:00;8.35;;;5.57;;
30173;SDS011;16985;50.814;8.530;2023-08-01T08:05:26;10.38;;;5.68;;
30173;SDS011;16985;50.814;8.530;2023-08-01T08:07:52;11.90;;;6.22;;
30173;SDS011;16985;50.814;8.530;2023-08-01T08:10:18;10.50;;;5.93;;
30173;SDS011;16985;50.814;8.530;2023-08-01T08:12:43;12.73;;;6.55;;
30173;SDS011;16985;50.814;8.530;2023-08-01T08:15:09;11.25;;;6.35;;
30173;SDS011;16985;50.814;8.530;2023-08-01T08:17:36;9.65;;;6.70;;
30173;SDS011;16985;50.814;8.530;2023-08-01T08:20:02;10.13;;;7.28;;
30173;SDS011;16985;50.814;8.530;2023-08-01T08:22:28;15.27;;;8.70;;
30173;SDS011;16985;50.814;8.530;2023-08-01T08:24:54;14.98;;;8.43;;
30173;SDS011;16985;50.814;8.530;2023-08-01T08:27:20;11.85;;;9.05;;
30173;SDS011;16985;50.814;8.530;2023-08-01T08:29:46;16.17;;;9.80;;
30173;SDS011;16985;50.814;8.530;2023-08-01T08:32:12;11.25;;;9.02;;
30173;SDS011;16985;50.814;8.530;2023-08-01T08:34:37;14.40;;;9.38;;
30173;SDS011;16985;50.814;8.530;2023-08-01T08:37:04;17.63;;;9.27;;
30173;SDS011;16985;50.814;8.530;2023-08-01T08:39:30;17.75;;;10.05;;
30173;SDS011;16985;50.814;8.530;2023-08-01T08:41:56;12.02;;;8.80;;
30173;SDS011;16985;50.814;8.530;2023-08-01T08:44:23;18.40;;;9.60;;
30173;SDS011;16985;50.814;8.530;2023-08-01T08:46:53;10.93;;;9.40;;
30173;SDS011;16985;50.814;8.530;2023-08-01T08:49:19;11.27;;;9.85;;
30173;SDS011;16985;50.814;8.530;2023-08-01T08:51:47;14.63;;;11.10;;
30173;SDS011;16985;50.814;8.530;2023-08-01T08:54:15;14.43;;;10.80;;
30173;SDS011;16985;50.814;8.530;2023-08-01T08:56:42;15.07;;;10.30;;
30173;SDS011;16985;50.814;8.530;2023-08-01T08:59:08;14.07;;;10.40;;
30173;SDS011;16985;50.814;8.530;2023-08-01T09:01:35;17.55;;;10.80;;
30173;SDS011;16985;50.814;8.530;2023-08-01T09:04:03;12.53;;;9.57;;
30173;SDS011;16985;50.814;8.530;2023-08-01T09:06:34;14.15;;;10.25;;
30173;SDS011;16985;50.814;8.530;2023-08-01T09:09:10;15.77;;;9.88;;
30173;SDS011;16985;50.814;8.530;2023-08-01T09:11:50;13.57;;;9.65;;
30173;SDS011;16985;50.814;8.530;2023-08-01T09:14:18;11.10;;;9.60;;
30173;SDS011;16985;50.814;8.530;2023-08-01T09:16:45;11.68;;;8.88;;
30173;SDS011;16985;50.814;8.530;2023-08-01T09:19:16;11.90;;;9.13;;
30173;SDS011;16985;50.814;8.530;2023-08-01T09:21:46;11.48;;;8.75;;
30173;SDS011;16985;50.814;8.530;2023-08-01T09:24:19;12.48;;;7.72;;
30173;SDS011;16985;50.814;8.530;2023-08-01T09:26:47;8.60;;;7.05;;
30173;SDS011;16985;50.814;8.530;2023-08-01T09:31:44;12.00;;;7.18;;
30173;SDS011;16985;50.814;8.530;2023-08-01T09:34:20;12.98;;;8.02;;
30173;SDS011;16985;50.814;8.530;2023-08-01T09:36:48;9.15;;;6.60;;
30173;SDS011;16985;50.814;8.530;2023-08-01T09:39:15;7.57;;;5.93;;
30173;SDS011;16985;50.814;8.530;2023-08-01T09:41:59;11.35;;;6.57;;
30173;SDS011;16985;50.814;8.530;2023-08-01T09:44:27;9.90;;;6.10;;
30173;SDS011;16985;50.814;8.530;2023-08-01T09:46:55;7.75;;;5.90;;
30173;SDS011;16985;50.814;8.530;2023-08-01T09:49:25;8.43;;;6.22;;
30173;SDS011;16985;50.814;8.530;2023-08-01T09:51:52;8.35;;;5.32;;
30173;SDS011;16985;50.814;8.530;2023-08-01T09:54:18;9.23;;;5.15;;
30173;SDS011;16985;50.814;8.530;2023-08-01T09:56:46;10.48;;;5.03;;
30173;SDS011;16985;50.814;8.530;2023-08-01T09:59:22;7.10;;;4.65;;
30173;SDS011;16985;50.814;8.530;2023-08-01T10:01:51;8.80;;;4.60;;
30173;SDS011;16985;50.814;8.530;2023-08-01T10:04:29;8.60;;;4.90;;
30173;SDS011;16985;50.814;8.530;2023-08-01T10:07:14;6.07;;;4.82;;
30173;SDS011;16985;50.814;8.530;2023-08-01T10:09:48;7.75;;;4.72;;
30173;SDS011;16985;50.814;8.530;2023-08-01T10:12:15;6.70;;;4.72;;
30173;SDS011;16985;50.814;8.530;2023-08-01T10:14:44;13.55;;;5.30;;
30173;SDS011;16985;50.814;8.530;2023-08-01T10:17:10;6.70;;;4.45;;
30173;SDS011;16985;50.814;8.530;2023-08-01T10:19:37;9.93;;;4.47;;
30173;SDS011;16985;50.814;8.530;2023-08-01T10:22:03;6.32;;;4.30;;
30173;SDS011;16985;50.814;8.530;2023-08-01T10:24:31;7.55;;;4.55;;
30173;SDS011;16985;50.814;8.530;2023-08-01T10:27:08;10.95;;;4.68;;
30173;SDS011;16985;50.814;8.530;2023-08-01T10:29:40;6.65;;;4.20;;
30173;SDS011;16985;50.814;8.530;2023-08-01T10:32:07;12.88;;;5.05;;
30173;SDS011;16985;50.814;8.530;2023-08-01T10:34:35;6.87;;;4.47;;
30173;SDS011;16985;50.814;8.530;2023-08-01T10:37:01;7.90;;;4.57;;
30173;SDS011;16985;50.814;8.530;2023-08-01T10:39:27;6.50;;;4.85;;
30173;SDS011;16985;50.814;8.530;2023-08-01T10:41:57;11.43;;;5.25;;
30173;SDS011;16985;50.814;8.530;2023-08-01T10:44:27;7.20;;;4.07;;
30173;SDS011;16985;50.814;8.530;2023-08-01T10:47:02;9.68;;;5.00;;
30173;SDS011;16985;50.814;8.530;2023-08-01T10:54:44;5.63;;;4.13;;
30173;SDS011;16985;50.814;8.530;2023-08-01T10:57:17;6.32;;;4.20;;
30173;SDS011;16985;50.814;8.530;2023-08-01T10:59:43;11.43;;;4.40;;
30173;SDS011;16985;50.814;8.530;2023-08-01T11:02:10;7.40;;;4.97;;
30173;SDS011;16985;50.814;8.530;2023-08-01T11:04:36;6.18;;;4.40;;
30173;SDS011;16985;50.814;8.530;2023-08-01T11:07:03;11.93;;;5.18;;
30173;SDS011;16985;50.814;8.530;2023-08-01T11:09:30;7.32;;;4.22;;
30173;SDS011;16985;50.814;8.530;2023-08-01T11:11:57;7.75;;;3.95;;
30173;SDS011;16985;50.814;8.530;2023-08-01T11:16:54;9.23;;;4.63;;
30173;SDS011;16985;50.814;8.530;2023-08-01T11:19:28;9.20;;;4.45;;
30173;SDS011;16985;50.814;8.530;2023-08-01T11:21:55;8.43;;;4.05;;
30173;SDS011;16985;50.814;8.530;2023-08-01T11:24:22;7.50;;;4.10;;
30173;SDS011;16985;50.814;8.530;2023-08-01T11:26:50;5.90;;;4.60;;
30173;SDS011;16985;50.814;8.530;2023-08-01T11:29:18;8.85;;;3.50;;
30173;SDS011;16985;50.814;8.530;2023-08-01T11:31:52;8.00;;;3.10;;
30173;SDS011;16985;50.814;8.530;2023-08-01T11:34:22;6.07;;;3.55;;
30173;SDS011;16985;50.814;8.530;2023-08-01T11:36:48;6.93;;;3.90;;
30173;SDS011;16985;50.814;8.530;2023-08-01T11:39:15;5.88;;;3.30;;
30173;SDS011;16985;50.814;8.530;2023-08-01T11:41:41;4.25;;;3.05;;
30173;SDS011;16985;50.814;8.530;2023-08-01T11:44:11;6.75;;;3.20;;
30173;SDS011;16985;50.814;8.530;2023-08-01T11:46:37;5.53;;;2.95;;
30173;SDS011;16985;50.814;8.530;2023-08-01T11:49:05;10.13;;;3.42;;
30173;SDS011;16985;50.814;8.530;2023-08-01T11:51:38;7.47;;;3.38;;
30173;SDS011;16985;50.814;8.530;2023-08-01T11:54:05;6.97;;;2.70;;
30173;SDS011;16985;50.814;8.530;2023-08-01T11:56:32;5.38;;;2.83;;
30173;SDS011;16985;50.814;8.530;2023-08-01T11:58:58;9.07;;;3.55;;
30173;SDS011;16985;50.814;8.530;2023-08-01T12:01:25;5.25;;;3.15;;
30173;SDS011;16985;50.814;8.530;2023-08-01T12:03:51;4.93;;;2.65;;
30173;SDS011;16985;50.814;8.530;2023-08-01T12:06:20;7.03;;;2.88;;
30173;SDS011;16985;50.814;8.530;2023-08-01T12:08:48;3.60;;;2.40;;
30173;SDS011;16985;50.814;8.530;2023-08-01T12:14:09;8.13;;;2.30;;
30173;SDS011;16985;50.814;8.530;2023-08-01T12:16:44;3.60;;;2.20;;
30173;SDS011;16985;50.814;8.530;2023-08-01T12:19:20;3.67;;;2.33;;
30173;SDS011;16985;50.814;8.530;2023-08-01T12:21:46;2.70;;;1.90;;
30173;SDS011;16985;50.814;8.530;2023-08-01T12:24:14;4.80;;;2.65;;
30173;SDS011;16985;50.814;8.530;2023-08-01T12:26:40;4.75;;;2.45;;
30173;SDS011;16985;50.814;8.530;2023-08-01T12:29:06;4.32;;;2.20;;
30173;SDS011;16985;50.814;8.530;2023-08-01T12:31:32;5.25;;;2.25;;
30173;SDS011;16985;50.814;8.530;2023-08-01T12:33:58;19.55;;;2.45;;
30173;SDS011;16985;50.814;8.530;2023-08-01T12:36:24;6.32;;;2.80;;
30173;SDS011;16985;50.814;8.530;2023-08-01T12:38:50;5.63;;;2.53;;
30173;SDS011;16985;50.814;8.530;2023-08-01T12:41:15;9.05;;;3.13;;
30173;SDS011;16985;50.814;8.530;2023-08-01T12:43:41;7.82;;;2.72;;
30173;SDS011;16985;50.814;8.530;2023-08-01T12:46:07;4.00;;;2.30;;
30173;SDS011;16985;50.814;8.530;2023-08-01T12:48:33;5.63;;;2.55;;
30173;SDS011;16985;50.814;8.530;2023-08-01T12:50:59;3.45;;;2.53;;
30173;SDS011;16985;50.814;8.530;2023-08-01T12:53:25;4.43;;;2.83;;
30173;SDS011;16985;50.814;8.530;2023-08-01T12:55:56;3.40;;;2.20;;
30173;SDS011;16985;50.814;8.530;2023-08-01T12:58:21;6.57;;;2.85;;
30173;SDS011;16985;50.814;8.530;2023-08-01T13:00:47;4.63;;;2.35;;
30173;SDS011;16985;50.814;8.530;2023-08-01T13:03:13;6.03;;;2.53;;
30173;SDS011;16985;50.814;8.530;2023-08-01T13:05:40;5.00;;;2.28;;
30173;SDS011;16985;50.814;8.530;2023-08-01T13:08:07;6.70;;;1.95;;
30173;SDS011;16985;50.814;8.530;2023-08-01T13:10:34;3.97;;;2.50;;
30173;SDS011;16985;50.814;8.530;2023-08-01T13:13:02;3.08;;;1.60;;
30173;SDS011;16985;50.814;8.530;2023-08-01T13:15:28;3.97;;;1.90;;
30173;SDS011;16985;50.814;8.530;2023-08-01T13:17:55;4.50;;;2.00;;
30173;SDS011;16985;50.814;8.530;2023-08-01T13:20:22;4.80;;;2.47;;
30173;SDS011;16985;50.814;8.530;2023-08-01T13:22:51;2.38;;;1.52;;
30173;SDS011;16985;50.814;8.530;2023-08-01T13:25:17;4.63;;;1.75;;
30173;SDS011;16985;50.814;8.530;2023-08-01T13:27:44;3.23;;;1.90;;
30173;SDS011;16985;50.814;8.530;2023-08-01T13:30:10;4.07;;;2.10;;
30173;SDS011;16985;50.814;8.530;2023-08-01T13:32:39;3.97;;;1.60;;
30173;SDS011;16985;50.814;8.530;2023-08-01T13:35:06;2.25;;;1.73;;
30173;SDS011;16985;50.814;8.530;2023-08-01T13:37:32;3.88;;;2.05;;
30173;SDS011;16985;50.814;8.530;2023-08-01T13:39:58;4.43;;;2.00;;
30173;SDS011;16985;50.814;8.530;2023-08-01T13:42:24;7.05;;;2.10;;
30173;SDS011;16985;50.814;8.530;2023-08-01T13:44:49;8.75;;;2.25;;
30173;SDS011;16985;50.814;8.530;2023-08-01T13:47:15;4.18;;;1.85;;
30173;SDS011;16985;50.814;8.530;2023-08-01T13:49:41;4.32;;;1.90;;
30173;SDS011;16985;50.814;8.530;2023-08-01T13:52:07;3.78;;;1.58;;
30173;SDS011;16985;50.814;8.530;2023-08-01T13:54:33;3.63;;;2.42;;
30173;SDS011;16985;50.814;8.530;2023-08-01T13:56:59;6.90;;;2.03;;
30173;SDS011;16985;50.814;8.530;2023-08-01T13:59:25;5.80;;;1.88;;
30173;SDS011;16985;50.814;8.530;2023-08-01T14:01:52;7.80;;;2.10;;
30173;SDS011;16985;50.814;8.530;2023-08-01T14:04:18;4.35;;;1.60;;
30173;SDS011;16985;50.814;8.530;2023-08-01T14:06:44;3.83;;;1.48;;
30173;SDS011;16985;50.814;8.530;2023-08-01T14:09:10;1.98;;;1.30;;
30173;SDS011;16985;50.814;8.530;2023-08-01T14:11:36;5.80;;;2.28;;
30173;SDS011;16985;50.814;8.530;2023-08-01T14:14:02;4.40;;;2.40;;
30173;SDS011;16985;50.814;8.530;2023-08-01T14:16:29;4.13;;;1.33;;
30173;SDS011;16985;50.814;8.530;2023-08-01T14:18:55;4.83;;;2.50;;
30173;SDS011;16985;50.814;8.530;2023-08-01T14:21:22;4.13;;;1.73;;
30173;SDS011;16985;50.814;8.530;2023-08-01T14:23:48;4.30;;;1.48;;
30173;SDS011;16985;50.814;8.530;2023-08-01T14:26:14;5.90;;;1.58;;
30173;SDS011;16985;50.814;8.530;2023-08-01T14:28:39;3.08;;;1.50;;
30173;SDS011;16985;50.814;8.530;2023-08-01T14:31:05;4.07;;;1.65;;
30173;SDS011;16985;50.814;8.530;2023-08-01T14:33:32;3.90;;;1.63;;
30173;SDS011;16985;50.814;8.530;2023-08-01T14:35:58;5.43;;;1.67;;
30173;SDS011;16985;50.814;8.530;2023-08-01T14:38:24;4.57;;;1.92;;
30173;SDS011;16985;50.814;8.530;2023-08-01T14:40:51;6.07;;;2.00;;
30173;SDS011;16985;50.814;8.530;2023-08-01T14:43:18;3.72;;;1.70;;
30173;SDS011;16985;50.814;8.530;2023-08-01T14:45:44;3.65;;;1.65;;
30173;SDS011;16985;50.814;8.530;2023-08-01T14:48:10;5.35;;;1.90;;
30173;SDS011;16985;50.814;8.530;2023-08-01T14:50:37;4.97;;;2.13;;
30173;SDS011;16985;50.814;8.530;2023-08-01T14:53:03;3.35;;;1.58;;
30173;SDS011;16985;50.814;8.530;2023-08-01T14:55:29;4.18;;;1.95;;
30173;SDS011;16985;50.814;8.530;2023-08-01T14:57:55;5.55;;;2.00;;